Decoded Metar for KIMT (IRON MOUNTAIN in MI, USA) (IATA:IMT) | Meteo·Mobile Aviation Weather
aviador You're here:

KIMT Decoded Metar

IRON MOUNTAIN in MI, USA
Report Time2019-01-19 04:54:00
UTC Time2019-01-19 06:00:42
Flight Rules Old
Wind330° at 05 kt
W.Decomp.*RWY 31: 4.6 kt HW 1.9 kt RCW
RWY 01: 3.9 kt HW 3.1 kt LCW
W.Rank330° ranks 1
Current wind is below 330° avg. (8.7)
Visibility9999 m
Phenomena:N/A
Clouds:Overcast 025 Hf
Expected CloudBase > 2,000 ft AGL from Temp-Dew spread
Ceiling2,500 ft
Temp-16°C (ISA -29)
Dew Point-21°C (66% RH)
AAT-21.4°C
QNH1027 hPa
Density Alt-2,949 ft
Elevation1,145 ft
Report Wrong Elevation
Raw Report
KIMT 190454Z AUTO 33005KT 10SM OVC025 M16/M21 A3033 RMK AO2 SLP301
T11611206=

Extra information for KIMT:More info

Metar Taf Metar & Taf Last 4 Metars F.Rules Stats Wind Profile Meteogram Temp Stats Airport Information Weather charts Add Link Nearby VenuesMetar ALERT Operation Metar Decoded Social comments

AIRNAV info for KIMT